Data for 11/13/2005

Time Sea-Level Adjusted Pressure Absolute Pressure Temperature Relative Humidity Dew Point   
(mb) (inHg) (mb) (inHg) (C) (F) (%) (C) (F)
00:05 1022 30.18 852 25.16 -4.7 23.6 69 -9.5 15
00:10 1022 30.18 852 25.16 -4.6 23.7 68 -9.7 14.5
00:15 1022 30.18 852 25.16 -4.4 24.1 67 -9.6 14.7
00:20 1022 30.18 852 25.16 -4.2 24.5 67 -9.5 14.9
00:25 1022 30.18 852 25.16 -4.2 24.5 67 -9.5 14.9
00:30 1022 30.18 852 25.16 -4.5 23.9 68 -9.5 14.9
00:35 1022 30.18 852 25.16 -4.6 23.8 67 -9.7 14.5
00:40 1022 30.18 852 25.16 -4.6 23.7 69 -9.4 15.2
00:45 1022 30.18 852 25.16 -4.9 23.1 71 -9.4 15
00:50 1022 30.18 852 25.16 -5 23 71 -9.4 15
00:55 1023 30.21 852 25.16 -5 23 71 -9.4 15.1
01:00 1023 30.21 852 25.16 -4.8 23.3 70 -9.6 14.8
01:05 1023 30.21 852 25.16 -4.6 23.7 69 -9.5 14.9
01:10 1023 30.21 852 25.16 -4.5 24 69 -9.2 15.4
01:15 1022 30.18 852 25.16 -4.3 24.3 69 -9.2 15.5
01:20 1022 30.18 852 25.16 -4.1 24.7 67 -9.2 15.4
01:25 1022 30.18 852 25.16 -3.8 25.1 66 -9.3 15.2
01:30 1022 30.18 852 25.16 -3.8 25.2 64 -9.5 14.8
01:35 1022 30.18 852 25.16 -3.7 25.4 64 -9.6 14.7
01:40 1022 30.18 852 25.16 -3.7 25.4 64 -9.5 15
01:45 1022 30.18 852 25.16 -3.8 25.1 64 -9.6 14.7
01:50 1022 30.18 852 25.16 -3.9 25 65 -9.5 14.9
01:55 1022 30.18 852 25.16 -4 24.8 66 -9.4 15
02:00 1022 30.18 852 25.16 -3.8 25.2 63 -9.9 14.1
02:05 1022 30.18 852 25.16 -3.4 25.8 61 -9.8 14.3
02:10 1022 30.18 851 25.13 -3.3 26.1 60 -10 13.9
02:15 1022 30.18 851 25.13 -3.4 25.9 62 -9.7 14.5
02:20 1022 30.18 851 25.13 -3.2 26.2 58 -10.3 13.5
02:25 1022 30.18 851 25.13 -3.1 26.5 60 -9.7 14.6
02:30 1022 30.18 851 25.13 -3.7 25.3 63 -9.8 14.4
02:35 1022 30.18 851 25.13 -3.8 25.1 62 -10.2 13.7
02:40 1022 30.18 851 25.13 -3.8 25.2 61 -10.3 13.5
02:45 1022 30.18 851 25.13 -3.7 25.3 60 -10.3 13.4
02:50 1022 30.18 851 25.13 -3.7 25.3 62 -10 13.9
02:55 1022 30.18 851 25.13 -3.9 25 64 -9.7 14.5
03:00 1022 30.18 851 25.13 -4.3 24.3 66 -9.7 14.5
03:05 1022 30.18 851 25.13 -4.5 23.9 66 -10 14.1
03:10 1022 30.18 851 25.13 -4.4 24.1 65 -9.9 14.2
03:15 1022 30.18 851 25.13 -4.2 24.4 65 -9.9 14.2
03:20 1022 30.18 851 25.13 -4.3 24.2 65 -10 14
03:25 1022 30.18 851 25.13 -4.3 24.2 64 -10.1 13.8
03:30 1021 30.15 851 25.13 -4.2 24.4 64 -10 14
03:35 1021 30.15 851 25.13 -4.3 24.3 65 -9.9 14.1
03:40 1021 30.15 851 25.13 -4.2 24.4 62 -10.5 13.1
03:45 1021 30.15 850 25.1 -3.8 25.2 60 -10.5 13.2
03:50 1021 30.15 850 25.1 -3.6 25.5 58 -10.6 12.8
03:55 1021 30.15 850 25.1 -3.4 25.8 58 -10.7 12.8
04:00 1021 30.15 850 25.1 -3.5 25.7 59 -10.4 13.2
04:05 1021 30.15 850 25.1 -3.3 26 60 -10 13.9
04:10 1021 30.15 850 25.1 -3.5 25.8 58 -10.5 13.2
04:15 1021 30.15 850 25.1 -3.5 25.6 58 -10.7 12.8
04:20 1021 30.15 850 25.1 -3.4 25.9 60 -10.1 13.8
04:25 1021 30.15 850 25.1 -4 24.8 64 -9.8 14.3
04:30 1021 30.15 850 25.1 -4.8 23.3 66 -10.2 13.7
04:35 1021 30.15 850 25.1 -5 23.1 65 -10.6 12.9
04:40 1021 30.15 850 25.1 -4.5 23.9 62 -10.7 12.7
04:45 1021 30.15 850 25.1 -4 24.7 61 -10.5 13.2
04:50 1021 30.15 850 25.1 -4 24.8 62 -10.3 13.5
04:55 1021 30.15 850 25.1 -4.1 24.6 62 -10.3 13.4
05:00 1021 30.15 850 25.1 -4 24.8 61 -10.4 13.3
05:05 1021 30.15 850 25.1 -3.9 25.1 61 -10.3 13.5
05:10 1021 30.15 850 25.1 -4 24.8 62 -10.2 13.7
05:15 1021 30.15 850 25.1 -4.4 24.2 65 -10 13.9
05:20 1021 30.15 850 25.1 -4.8 23.4 66 -10.1 13.7
05:25 1021 30.15 850 25.1 -4.9 23.2 67 -10.2 13.6
05:30 1021 30.15 850 25.1 -4.9 23.2 66 -10.2 13.6
05:35 1021 30.15 850 25.1 -4.7 23.5 66 -10.2 13.6
05:40 1021 30.15 850 25.1 -4.7 23.5 63 -10.7 12.8
05:45 1021 30.15 850 25.1 -4.6 23.6 63 -10.6 12.8
05:50 1021 30.15 850 25.1 -4.4 24.1 62 -10.7 12.7
05:55 1021 30.15 850 25.1 -4.4 24.1 63 -10.5 13.1
06:00 1021 30.15 850 25.1 -4.3 24.3 62 -10.5 13.1
06:05 1021 30.15 850 25.1 -4.2 24.5 61 -10.6 12.9
06:10 1020 30.12 850 25.1 -4.1 24.6 60 -10.8 12.5
06:15 1020 30.12 850 25.1 -4 24.7 58 -11.2 11.9
06:20 1020 30.12 850 25.1 -3.9 25 58 -10.9 12.4
06:25 1020 30.12 850 25.1 -4 24.7 61 -10.5 13.1
06:30 1020 30.12 850 25.1 -4.7 23.6 62 -10.9 12.4
06:35 1020 30.12 850 25.1 -4.7 23.6 63 -10.8 12.6
06:40 1020 30.12 850 25.1 -4.7 23.6 62 -10.8 12.5
06:45 1020 30.12 849 25.07 -4.5 23.8 62 -10.7 12.8
06:50 1020 30.12 849 25.07 -4.7 23.5 65 -10.3 13.5
06:55 1020 30.12 849 25.07 -5.1 22.8 66 -10.5 13.2
07:00 1020 30.12 849 25.07 -5.2 22.6 67 -10.4 13.3
07:05 1020 30.12 849 25.07 -5.3 22.5 67 -10.4 13.3
07:10 1020 30.12 849 25.07 -5 22.9 64 -10.9 12.4
07:15 1020 30.12 849 25.07 -4.5 23.9 62 -10.8 12.6
07:20 1020 30.12 849 25.07 -4.5 24 62 -10.8 12.6
07:25 1020 30.12 849 25.07 -4.4 24 62 -10.7 12.8
07:30 1020 30.12 849 25.07 -4.6 23.8 63 -10.5 13.1
07:35 1020 30.12 849 25.07 -5.2 22.7 68 -10.3 13.5
07:40 1020 30.12 849 25.07 -5.4 22.2 67 -10.7 12.7
07:45 1020 30.12 849 25.07 -5.2 22.7 67 -10.4 13.2
07:50 1020 30.12 849 25.07 -4.9 23.2 66 -10.3 13.5
07:55 1020 30.12 849 25.07 -4.9 23.1 65 -10.5 13.2
08:00 1020 30.12 849 25.07 -5 23 65 -10.6 12.9
08:05 1020 30.12 849 25.07 -4.8 23.3 64 -10.6 12.9
08:10 1020 30.12 849 25.07 -4.8 23.4 64 -10.6 12.9
08:15 1020 30.12 849 25.07 -4.5 23.9 61 -11 12.3
08:20 1020 30.12 849 25.07 -4 24.7 60 -10.6 12.9
08:25 1020 30.12 849 25.07 -3.9 25 60 -10.6 12.9
08:30 1020 30.12 849 25.07 -3.8 25.2 59 -10.7 12.7
08:35 1020 30.12 849 25.07 -3.6 25.6 58 -10.8 12.6
08:40 1020 30.12 849 25.07 -3.5 25.8 57 -10.7 12.7
08:45 1019 30.09 849 25.07 -3 26.6 56 -10.5 13.1
08:50 1019 30.09 849 25.07 -2.8 27 54 -10.9 12.4
08:55 1019 30.09 849 25.07 -2.5 27.6 53 -10.8 12.6
09:00 1019 30.09 849 25.07 -2.2 28.1 52 -10.9 12.4
09:05 1019 30.09 849 25.07 -1.9 28.6 52 -10.4 13.3
09:10 1019 30.09 848 25.04 -2.2 28 54 -10.4 13.3
09:15 1019 30.09 848 25.04 -2.2 28.1 53 -10.4 13.2
09:20 1019 30.09 848 25.04 -2.2 28 52 -10.7 12.7
09:25 1019 30.09 848 25.04 -2.2 28 54 -10.3 13.4
09:30 1019 30.09 848 25.04 -2.3 27.9 54 -10.4 13.3
09:35 1019 30.09 848 25.04 -2.3 27.8 54 -10.3 13.4
09:40 1019 30.09 848 25.04 -2.2 28.1 54 -10.3 13.5
09:45 1019 30.09 848 25.04 -2 28.4 55 -9.9 14.2
09:50 1019 30.09 848 25.04 -1.9 28.6 53 -10.3 13.5
09:55 1019 30.09 848 25.04 -1.7 28.9 53 -10 14.1
10:00 1019 30.09 848 25.04 -1.5 29.3 53 -9.9 14.2
10:05 1018 30.06 848 25.04 -1.5 29.4 53 -9.9 14.2
10:10 1018 30.06 848 25.04 -1.3 29.6 54 -9.6 14.8
10:15 1018 30.06 848 25.04 -1.1 30 52 -9.7 14.6
10:20 1018 30.06 848 25.04 -1.1 30.1 52 -9.7 14.6
10:25 1018 30.06 847 25.01 -0.8 30.5 51 -9.7 14.5
10:30 1018 30.06 847 25.01 -0.6 30.9 51 -9.5 14.9
10:35 1018 30.06 847 25.01 -0.4 31.3 50 -9.7 14.6
10:40 1018 30.06 847 25.01 -0.2 31.7 50 -9.3 15.3
10:45 1018 30.06 847 25.01 -0.2 31.7 51 -9 15.8
10:50 1018 30.06 847 25.01 -0 31.9 50 -9.3 15.3
10:55 1018 30.06 847 25.01 0.1 32.1 50 -9.1 15.6
11:00 1018 30.06 847 25.01 0.1 32.1 51 -8.9 16
11:05 1018 30.06 847 25.01 0.3 32.5 52 -8.6 16.5
11:10 1018 30.06 847 25.01 0.3 32.5 50 -8.9 15.9
11:15 1018 30.06 847 25.01 0.5 33 48 -9.3 15.3
11:20 1018 30.06 847 25.01 0.7 33.3 47 -9.4 15
11:25 1018 30.06 847 25.01 1 33.8 47 -9.2 15.5
11:30 1018 30.06 847 25.01 1 33.8 45 -9.6 14.8
11:35 1018 30.06 847 25.01 0.8 33.4 45 -9.8 14.4
11:40 1018 30.06 847 25.01 0.8 33.4 46 -9.7 14.5
11:45 1018 30.06 847 25.01 1 33.9 46 -9.4 15
11:50 1017 30.03 847 25.01 1.1 34 48 -8.8 16.2
11:55 1017 30.03 847 25.01 1.3 34.3 47 -8.9 15.9
12:00 1017 30.03 846 24.98 1.4 34.5 47 -8.7 16.4
12:05 1017 30.03 846 24.98 1.3 34.3 47 -8.9 15.9
12:10 1017 30.03 846 24.98 1.3 34.3 49 -8.2 17.3
12:15 1017 30.03 846 24.98 1.1 34 50 -8.1 17.4
12:20 1017 30.03 846 24.98 0.9 33.6 52 -7.8 18
12:25 1017 30.03 846 24.98 1 33.8 56 -6.7 19.9
12:30 1017 30.03 846 24.98 1.1 34.1 59 -6 21.1
12:35 1017 30.03 846 24.98 0.9 33.6 64 -5.3 22.5
12:40 1016 30 846 24.98 0.9 33.6 63 -5.3 22.5
12:45 1016 30 845 24.95 1 33.9 63 -5.1 22.7
12:50 1016 30 845 24.95 1.2 34.1 65 -4.8 23.4
12:55 1016 30 845 24.95 1.1 34 64 -4.9 23.2
13:00 1016 30 845 24.95 1.3 34.4 63 -5 22.9
13:05 1016 30 845 24.95 1.4 34.6 64 -4.6 23.7
13:10 1016 30 845 24.95 1.3 34.4 65 -4.4 24
13:15 1015 29.97 845 24.95 1 33.8 67 -4.5 23.8
13:20 1015 29.97 845 24.95 1 33.9 68 -4.2 24.5
13:25 1015 29.97 844 24.92 1 33.8 70 -4 24.8
13:30 1015 29.97 844 24.92 0.9 33.5 70 -3.9 24.9
13:35 1015 29.97 844 24.92 1.1 34 70 -3.7 25.3
13:40 1015 29.97 844 24.92 1 33.8 70 -3.8 25.1
13:45 1015 29.97 844 24.92 1 33.9 69 -3.9 24.9
13:50 1015 29.97 844 24.92 1.3 34.3 69 -3.9 25
13:55 1015 29.97 844 24.92 1.3 34.3 68 -4 24.8
14:00 1015 29.97 844 24.92 1.3 34.3 68 -4.1 24.7
14:05 1015 29.97 844 24.92 1.3 34.4 67 -4.1 24.7
14:10 1014 29.94 844 24.92 1.3 34.4 67 -4.1 24.7
14:15 1014 29.94 844 24.92 1.5 34.7 65 -4.4 24.1
14:20 1015 29.97 844 24.92 1.6 34.8 64 -4.5 23.8
14:25 1014 29.94 844 24.92 1.5 34.8 65 -4.4 24.1
14:30 1014 29.94 844 24.92 1.6 34.9 64 -4.4 24.1
14:35 1014 29.94 844 24.92 1.7 35.1 63 -4.6 23.7
14:40 1014 29.94 844 24.92 1.7 35.1 62 -4.8 23.4
14:45 1014 29.94 844 24.92 2 35.6 60 -4.9 23.1
14:50 1014 29.94 844 24.92 2 35.5 58 -5.3 22.4
14:55 1014 29.94 844 24.92 1.9 35.5 57 -5.7 21.7
15:00 1014 29.94 843 24.89 2.1 35.7 57 -5.5 22.1
15:05 1014 29.94 843 24.89 2.1 35.7 58 -5.3 22.4
15:10 1014 29.94 843 24.89 2.3 36.2 55 -5.8 21.5
15:15 1014 29.94 843 24.89 2.4 36.3 55 -5.9 21.5
15:20 1014 29.94 843 24.89 2.8 37.1 54 -5.6 21.9
15:25 1014 29.94 843 24.89 2.8 37.1 52 -6 21.2
15:30 1014 29.94 843 24.89 2.7 36.8 54 -5.6 21.8
15:35 1014 29.94 843 24.89 2.6 36.8 59 -4.5 23.8
15:40 1014 29.94 843 24.89 2.4 36.3 63 -4 24.8
15:45 1014 29.94 843 24.89 2.4 36.3 62 -4.3 24.3
15:50 1014 29.94 843 24.89 2.3 36.1 62 -4.2 24.4
15:55 1014 29.94 843 24.89 2.4 36.3 59 -4.9 23.3
16:00 1014 29.94 843 24.89 2.4 36.3 56 -5.4 22.2
16:05 1014 29.94 843 24.89 2.2 36 57 -5.5 22
16:10 1014 29.94 843 24.89 2.1 35.8 57 -5.5 22.1
16:15 1014 29.94 843 24.89 2.2 35.9 57 -5.5 22.1
16:20 1014 29.94 843 24.89 2.1 35.8 57 -5.5 22.2
16:25 1014 29.94 843 24.89 2.1 35.7 65 -3.8 25.1
16:30 1014 29.94 843 24.89 1.5 34.6 67 -4 24.8
16:35 1014 29.94 843 24.89 1.5 34.6 65 -4.4 24.1
16:40 1014 29.94 843 24.89 1.4 34.5 65 -4.5 23.9
16:45 1014 29.94 843 24.89 1.2 34.2 65 -4.6 23.8
16:50 1014 29.94 843 24.89 1.2 34.2 66 -4.5 23.9
16:55 1014 29.94 843 24.89 1.1 34 65 -4.6 23.7
17:00 1014 29.94 843 24.89 1.2 34.2 65 -4.6 23.7
17:05 1014 29.94 843 24.89 1.4 34.5 65 -4.4 24
17:10 1014 29.94 843 24.89 1.3 34.3 64 -4.9 23.2
17:15 1014 29.94 843 24.89 1.3 34.3 63 -5 22.9
17:20 1013 29.91 843 24.89 1.3 34.3 64 -4.7 23.5
17:25 1013 29.91 843 24.89 1.1 34 65 -4.8 23.3
17:30 1013 29.91 843 24.89 1.2 34.2 64 -4.9 23.1
17:35 1013 29.91 843 24.89 1.2 34.1 64 -4.9 23.2
17:40 1013 29.91 843 24.89 1.1 33.9 65 -4.7 23.5
17:45 1013 29.91 843 24.89 1.1 34.1 62 -5.3 22.5
17:50 1013 29.91 843 24.89 1.3 34.4 63 -4.9 23.1
17:55 1013 29.91 843 24.89 1.5 34.7 64 -4.5 23.9
18:00 1013 29.91 843 24.89 1.4 34.6 64 -4.5 23.8
18:05 1013 29.91 842 24.86 1.4 34.5 66 -4.2 24.4
18:10 1013 29.91 842 24.86 1.1 33.9 68 -4.1 24.6
18:15 1013 29.91 842 24.86 1 33.7 65 -4.9 23.2
18:20 1013 29.91 842 24.86 1.1 34 67 -4.3 24.2
18:25 1013 29.91 842 24.86 1.1 33.9 67 -4.4 24.1
18:30 1013 29.91 842 24.86 1.5 34.7 63 -4.9 23.3
18:35 1013 29.91 842 24.86 2.3 36.2 60 -4.7 23.5
18:40 1013 29.91 842 24.86 2.7 36.9 60 -4.3 24.3
18:45 1013 29.91 842 24.86 2.8 37 60 -4.2 24.4
18:50 1013 29.91 842 24.86 3 37.3 59 -4.2 24.4
18:55 1013 29.91 842 24.86 3.1 37.5 59 -4.1 24.6
19:00 1013 29.91 842 24.86 3.2 37.8 58 -4.2 24.5
19:05 1013 29.91 842 24.86 3.9 39.1 56 -4.1 24.6
19:10 1013 29.91 842 24.86 4.4 39.9 54 -4.1 24.7
19:15 1013 29.91 842 24.86 4.7 40.5 52 -4.4 24.1
19:20 1013 29.91 842 24.86 4.9 40.8 53 -4 24.8
19:25 1012 29.88 842 24.86 4.8 40.7 52 -4.1 24.6
19:30 1012 29.88 842 24.86 4.6 40.4 53 -4 24.7
19:35 1012 29.88 841 24.83 4.7 40.5 53 -4.1 24.7
19:40 1012 29.88 841 24.83 4.8 40.6 53 -4.1 24.7
19:45 1012 29.88 841 24.83 4.9 40.7 52 -4.1 24.7
19:50 1012 29.88 841 24.83 4.9 40.9 52 -4.1 24.6
19:55 1012 29.88 841 24.83 4.9 40.9 53 -3.9 25
20:00 1012 29.88 841 24.83 4.8 40.6 53 -4.1 24.6
20:05 1012 29.88 841 24.83 4.8 40.6 53 -4 24.9
20:10 1012 29.88 841 24.83 4.6 40.3 53 -4.3 24.3
20:15 1012 29.88 841 24.83 4.8 40.6 53 -4 24.8
20:20 1012 29.88 841 24.83 4.7 40.5 53 -4.2 24.5
20:25 1012 29.88 841 24.83 4.9 40.8 52 -4.1 24.6
20:30 1012 29.88 841 24.83 4.8 40.7 53 -3.9 24.9
20:35 1012 29.88 841 24.83 4.7 40.5 53 -3.9 24.9
20:40 1012 29.88 841 24.83 4.6 40.3 54 -3.9 25
20:45 1012 29.88 841 24.83 4.6 40.3 53 -4.1 24.6
20:50 1012 29.88 841 24.83 4.9 40.8 52 -4.1 24.6
20:55 1012 29.88 841 24.83 4.9 40.9 52 -4.2 24.4
21:00 1011 29.85 841 24.83 5 40.9 52 -4.1 24.7
21:05 1012 29.88 841 24.83 5 40.9 52 -4.2 24.5
21:10 1011 29.85 841 24.83 5 41 51 -4.3 24.3
21:15 1011 29.85 841 24.83 5 40.9 51 -4.3 24.3
21:20 1011 29.85 840 24.81 5 40.9 51 -4.3 24.3
21:25 1011 29.85 841 24.83 5 41 50 -4.5 23.8
21:30 1011 29.85 841 24.83 5 41 51 -4.4 24.2
21:35 1011 29.85 841 24.83 5.1 41.1 50 -4.4 24.1
21:40 1011 29.85 841 24.83 5 41.1 51 -4.3 24.2
21:45 1011 29.85 840 24.81 5 41 50 -4.7 23.6
21:50 1011 29.85 840 24.81 5.2 41.4 51 -4.2 24.5
21:55 1011 29.85 840 24.81 5.4 41.6 49 -4.5 24
22:00 1011 29.85 840 24.81 5.4 41.7 50 -4.2 24.5
22:05 1011 29.85 840 24.81 5.3 41.6 49 -4.5 23.9
22:10 1011 29.85 840 24.81 5.5 41.9 49 -4.2 24.4
22:15 1011 29.85 840 24.81 5.5 41.9 49 -4.3 24.3
22:20 1011 29.85 840 24.81 5.6 42.1 49 -4.4 24.1
22:25 1011 29.85 840 24.81 5.5 41.8 51 -4 24.9
22:30 1011 29.85 840 24.81 5.4 41.7 48 -4.7 23.5
22:35 1011 29.85 840 24.81 5.7 42.2 48 -4.4 24.1
22:40 1011 29.85 840 24.81 5.6 42.1 49 -4.3 24.3
22:45 1011 29.85 840 24.81 5.6 42.1 49 -4.3 24.3
22:50 1011 29.85 840 24.81 5.6 42.1 50 -4.1 24.7
22:55 1011 29.85 840 24.81 5.5 41.9 50 -3.9 24.9
23:00 1011 29.85 840 24.81 5.5 41.8 51 -4 24.8
23:05 1010 29.83 840 24.81 5.4 41.7 51 -4 24.8
23:10 1010 29.83 840 24.81 5.3 41.6 51 -4 24.8
23:15 1010 29.83 840 24.81 5.3 41.6 51 -4 24.8
23:20 1010 29.83 840 24.81 5.3 41.5 52 -3.8 25.1
23:25 1010 29.83 839 24.78 5.3 41.6 51 -4.1 24.6
23:30 1010 29.83 839 24.78 5.4 41.8 50 -4.2 24.4
23:35 1010 29.83 839 24.78 5.7 42.2 49 -4.3 24.2
23:40 1010 29.83 839 24.78 5.7 42.3 49 -4 24.7
23:45 1010 29.83 839 24.78 5.6 42 50 -4 24.9
23:50 1010 29.83 839 24.78 5.6 42 50 -3.9 24.9
23:55 1010 29.83 839 24.78 5.5 41.9 51 -3.8 25.1
24:00 1010 29.83 839 24.78 5.6 42 50 -3.9 24.9